Aeroporto :
LOGIN :

Iscrizione | Disclaimer

   EN    FR    IT 

 










Sommario :    VFR   VFR Marginale   IFR   IFR Intensivo   IFR Molto Intensivo
Visibilità : 
Base nubi : 
>= 8 km
>= 3000ft
5 / 8 km
1000 / 3000 ft
1500m / 5 km
500 / 1000 ft
800 / 1500m
200 / 500 ft
< 800m
< 200 ft
Simboli :   Temporali  Nebbia  Neve Forte  Precipitazioni Forti  Vento > 20 kt
SIGMETs :   Varie  Temporali  Ghiacco  Turbolenza  Onda orograficha  Ceneri Vulcaniche







- Altitudine del aeroporto : 3 ft
- Codice IATA : LWR


EHLW - Leuuwarden Air Base

ULTIMO METAR :
  • 191211Z AUTO 03012KT 350V070 7000 BR BKN006 OVC007 14/13 Q1007 YLO

METARs OBSOLETI :
  • 191156Z AUTO 04011KT 360V080 7000 BR SCT006 OVC007 15/13 Q1007 YLO
  • 191155Z AUTO 03011KT 350V080 8000 BR BKN007 BKN008 OVC190 15/13 Q1007 GRN
  • 191125Z AUTO 01010KT 350V060 6000 BR SCT008 BKN009 BKN011 15/13 Q1007 GRN
  • 191115Z AUTO 01010KT 340V050 6000 BR FEW009 SCT011 OVC220 16/13 Q1007 GRN
  • 191055Z AUTO 02010KT 350V050 7000 BR FEW072 OVC230 18/14 Q1007 WHT
  • 191035Z AUTO 02010KT 340V070 8000 BR OVC210 17/14 Q1007 BLU
  • 191044Z AUTO 02009KT 340V050 8000 BR BKN210 OVC280 16/13 Q1007 BLU
  • 191025Z AUTO 02010KT 340V050 8000 BR OVC220 17/14 Q1007 BLU
  • 190955Z AUTO 03011KT 350V060 7000 BR FEW011 OVC220 16/13 Q1007 WHT

TAF TAF EHLW
Valido dal 19 a 09 ore il 19 a 21 ore UTC


190858Z 1909/1921 35010KT 6000 BR FEW007 BKN070
PROB40 1916/1921 2000 BR SCT002 BKN005
Nessun NOTAM noto per questo aeroporto.



MetMap, La meteo Aeronautica in un colpo d'occhio ! - Copyright ORBIFLY Dicembre 2007 - Disclaimer

ORBIFLY MET'MAP TEAM :

Programmazione e sviluppo : Alexandra Zaïnal
Concezione e sviluppo : Baudouin d'Aumeries
Co-Programmazione e sviluppo : Marc-Olivier Méhu
Supporto tecnico e logistico : Manuel Goepfert
Aiuto per la traduzione : Arnaldo La Scala

Contatto : metmap@orbifly.com




FONTI E CREDITI :

   NOAA